createdAt,value
2024-03-09T00:01:12.369Z,26.37
2024-03-09T00:03:39.005Z,26.43
2024-03-09T00:06:05.617Z,24.90
2024-03-09T00:08:32.173Z,25.87
2024-03-09T00:10:58.807Z,25.72
2024-03-09T00:13:25.451Z,25.88
2024-03-09T00:15:52.037Z,28.51
2024-03-09T00:18:26.055Z,28.06
2024-03-09T00:21:00.204Z,27.62
2024-03-09T00:23:26.752Z,28.30
2024-03-09T00:25:53.363Z,27.18
2024-03-09T00:28:19.963Z,26.77
2024-03-09T00:30:46.559Z,27.58
2024-03-09T00:33:13.184Z,27.28
2024-03-09T00:35:39.790Z,27.63
2024-03-09T00:38:06.995Z,26.97
2024-03-09T00:40:34.025Z,27.29
2024-03-09T00:43:00.746Z,27.09
2024-03-09T00:45:27.419Z,27.57
2024-03-09T00:47:54.226Z,28.13
2024-03-09T00:50:20.836Z,28.33
2024-03-09T00:52:47.656Z,27.52
2024-03-09T00:55:14.303Z,27.73
2024-03-09T00:57:40.879Z,27.42
2024-03-09T01:00:07.445Z,27.17
2024-03-09T01:02:34.001Z,25.95
2024-03-09T01:05:00.771Z,26.26
2024-03-09T01:07:27.505Z,26.34
2024-03-09T01:09:54.186Z,26.74
2024-03-09T01:12:20.850Z,27.03
2024-03-09T01:14:47.440Z,26.73
2024-03-09T01:17:14.058Z,26.40
2024-03-09T01:19:40.856Z,27.34
2024-03-09T01:22:07.469Z,26.68
2024-03-09T01:24:34.032Z,26.99
2024-03-09T01:27:00.741Z,26.52
2024-03-09T01:29:27.416Z,26.25
2024-03-09T01:31:54.002Z,26.88
2024-03-09T01:34:20.587Z,27.21
2024-03-09T01:36:47.157Z,27.31
2024-03-09T01:39:13.725Z,27.25
2024-03-09T01:41:40.295Z,26.88
2024-03-09T01:44:06.989Z,26.39
2024-03-09T01:46:33.592Z,26.80
2024-03-09T01:49:00.197Z,27.67
2024-03-09T01:51:26.736Z,28.45
2024-03-09T01:53:53.352Z,28.51
2024-03-09T01:56:19.934Z,28.42
2024-03-09T01:58:46.558Z,28.55
2024-03-09T02:01:13.197Z,28.58
2024-03-09T02:03:39.756Z,27.64
2024-03-09T02:06:06.338Z,28.41
2024-03-09T02:08:32.883Z,28.85
2024-03-09T02:10:59.482Z,28.21
2024-03-09T02:13:26.271Z,28.45
2024-03-09T02:15:52.831Z,28.05
2024-03-09T02:18:19.395Z,28.65
2024-03-09T02:20:45.964Z,29.54
2024-03-09T02:23:12.553Z,29.83
2024-03-09T02:25:39.321Z,29.66
2024-03-09T02:28:05.925Z,29.13
2024-03-09T02:30:32.570Z,28.70
2024-03-09T02:32:59.184Z,28.62
2024-03-09T02:35:25.833Z,28.59
2024-03-09T02:37:52.450Z,28.95
2024-03-09T02:40:19.014Z,28.70
2024-03-09T02:42:45.562Z,28.98
2024-03-09T02:45:12.111Z,29.11
2024-03-09T02:47:38.680Z,29.83
2024-03-09T02:50:05.546Z,29.52
2024-03-09T02:52:32.310Z,29.56
2024-03-09T02:54:58.912Z,29.31
2024-03-09T02:57:25.493Z,29.29
2024-03-09T02:59:52.064Z,29.72
2024-03-09T03:02:18.619Z,29.93
2024-03-09T03:04:45.335Z,29.55
2024-03-09T03:07:11.970Z,30.36
2024-03-09T03:09:38.512Z,31.04
2024-03-09T03:12:05.102Z,30.32
2024-03-09T03:14:31.716Z,30.32
2024-03-09T03:16:58.291Z,30.05
2024-03-09T03:19:24.843Z,30.36
2024-03-09T03:21:51.396Z,29.16
2024-03-09T03:24:17.967Z,29.77
2024-03-09T03:26:44.541Z,29.68
2024-03-09T03:29:14.045Z,28.88
2024-03-09T03:31:40.755Z,29.20
2024-03-09T03:34:07.421Z,29.38
2024-03-09T03:36:33.979Z,29.53
2024-03-09T03:39:00.589Z,28.55
2024-03-09T03:41:27.131Z,28.20
2024-03-09T03:43:53.779Z,28.81
2024-03-09T03:46:20.564Z,29.53
2024-03-09T03:48:47.654Z,30.90
2024-03-09T03:51:14.871Z,30.58
2024-03-09T03:53:41.431Z,31.07
2024-03-09T03:56:08.122Z,31.87
2024-03-09T03:58:34.742Z,32.28
2024-03-09T04:01:01.341Z,31.63
2024-03-09T04:03:28.032Z,31.82
2024-03-09T04:05:54.584Z,31.97
2024-03-09T04:08:21.242Z,30.43
2024-03-09T04:10:48.176Z,29.73
2024-03-09T04:13:14.927Z,31.72
2024-03-09T04:15:41.485Z,31.10
2024-03-09T04:18:08.093Z,29.33
2024-03-09T04:20:34.685Z,28.68
2024-03-09T04:23:01.362Z,28.34
2024-03-09T04:25:28.070Z,27.95
2024-03-09T04:27:54.633Z,27.91
2024-03-09T04:30:21.185Z,26.92
2024-03-09T04:32:47.810Z,26.80
2024-03-09T04:35:14.495Z,26.78
2024-03-09T04:37:41.178Z,26.93
2024-03-09T04:40:07.774Z,27.85
2024-03-09T04:42:34.370Z,27.61
2024-03-09T04:45:00.960Z,26.80
2024-03-09T04:47:27.571Z,26.77
2024-03-09T04:49:54.178Z,26.18
2024-03-09T04:52:20.732Z,25.94
2024-03-09T04:54:47.349Z,25.35
2024-03-09T04:57:13.927Z,24.34
2024-03-09T04:59:40.493Z,25.40
2024-03-09T05:02:07.140Z,25.48
2024-03-09T05:04:33.822Z,25.26
2024-03-09T05:07:00.391Z,24.52
2024-03-09T05:09:26.974Z,25.43
2024-03-09T05:11:53.619Z,25.39
2024-03-09T05:14:20.229Z,24.92
2024-03-09T05:16:46.863Z,26.58
2024-03-09T05:19:13.514Z,24.80
2024-03-09T05:21:40.133Z,25.27
2024-03-09T05:24:06.740Z,24.78
2024-03-09T05:26:33.410Z,24.67
2024-03-09T05:29:00.202Z,24.03
2024-03-09T05:31:26.921Z,23.43
2024-03-09T05:33:53.567Z,23.94
2024-03-09T05:36:20.322Z,23.60
2024-03-09T05:38:46.897Z,24.16
2024-03-09T05:41:13.471Z,24.41
2024-03-09T05:43:40.100Z,25.50
2024-03-09T05:46:06.674Z,24.73
2024-03-09T05:48:33.301Z,24.72
2024-03-09T05:50:59.856Z,27.02
2024-03-09T05:53:26.419Z,26.94
2024-03-09T05:55:53.007Z,26.56
2024-03-09T05:58:19.585Z,24.86
2024-03-09T06:00:46.162Z,24.27
2024-03-09T06:03:12.739Z,25.36
2024-03-09T06:05:39.369Z,25.47
2024-03-09T06:08:05.974Z,25.52
2024-03-09T06:10:36.495Z,26.62
2024-03-09T06:13:05.168Z,27.22
2024-03-09T06:15:31.899Z,29.87
2024-03-09T06:17:59.090Z,29.50
2024-03-09T06:20:25.724Z,28.61
2024-03-09T06:22:52.347Z,28.01
2024-03-09T06:25:18.929Z,28.31
2024-03-09T06:27:45.518Z,27.58
2024-03-09T06:30:12.104Z,27.56
2024-03-09T06:32:38.715Z,27.90
2024-03-09T06:35:05.424Z,27.82
2024-03-09T06:37:32.074Z,27.75
2024-03-09T06:39:58.712Z,27.38
2024-03-09T06:42:25.339Z,29.26
2024-03-09T06:44:51.952Z,28.74
2024-03-09T06:47:18.598Z,29.95
2024-03-09T06:49:45.215Z,29.37
2024-03-09T06:52:11.918Z,29.03
2024-03-09T06:54:38.464Z,30.26
2024-03-09T06:57:05.122Z,29.15
2024-03-09T06:59:31.709Z,28.31
2024-03-09T07:01:58.436Z,28.30
2024-03-09T07:04:24.993Z,29.10
2024-03-09T07:06:51.543Z,29.28
2024-03-09T07:09:18.094Z,29.11
2024-03-09T07:11:45.744Z,28.86
2024-03-09T07:14:12.416Z,27.92
2024-03-09T07:16:39.433Z,27.88
2024-03-09T07:19:08.795Z,28.13
2024-03-09T07:21:35.369Z,27.71
2024-03-09T07:24:01.999Z,28.41
2024-03-09T07:26:28.589Z,28.88
2024-03-09T07:28:55.196Z,29.08
2024-03-09T07:31:21.901Z,29.30
2024-03-09T07:33:48.534Z,30.22
2024-03-09T07:36:15.137Z,30.73
2024-03-09T07:38:41.711Z,31.25
2024-03-09T07:41:08.384Z,31.63
2024-03-09T07:43:37.306Z,31.53
2024-03-09T07:46:04.306Z,31.66
2024-03-09T07:48:30.913Z,31.15
2024-03-09T07:50:57.454Z,31.34
2024-03-09T07:53:24.044Z,31.06
2024-03-09T07:55:50.679Z,31.89
2024-03-09T07:58:25.038Z,31.58
2024-03-09T08:00:53.173Z,30.86
2024-03-09T08:03:19.777Z,31.27
2024-03-09T08:05:46.420Z,30.32
2024-03-09T08:08:13.814Z,30.86
2024-03-09T08:10:41.441Z,31.15
2024-03-09T08:13:07.981Z,30.43
2024-03-09T08:15:34.608Z,31.10
2024-03-09T08:18:01.247Z,30.76
2024-03-09T08:20:27.871Z,31.52
2024-03-09T08:22:54.543Z,31.62
2024-03-09T08:25:21.161Z,30.68
2024-03-09T08:27:47.774Z,30.66
2024-03-09T08:30:14.458Z,31.59
2024-03-09T08:32:41.137Z,31.33
2024-03-09T08:35:07.796Z,31.42
2024-03-09T08:37:34.475Z,32.23
2024-03-09T08:40:01.148Z,32.15
2024-03-09T08:42:27.711Z,32.56
2024-03-09T08:44:56.728Z,32.94
2024-03-09T08:47:24.780Z,32.51
2024-03-09T08:49:51.522Z,32.55
2024-03-09T08:52:18.121Z,33.05
2024-03-09T08:54:44.752Z,33.22
2024-03-09T08:57:11.314Z,32.70
2024-03-09T08:59:37.971Z,33.03
2024-03-09T09:02:04.585Z,33.06
2024-03-09T09:04:31.238Z,31.25
2024-03-09T09:06:57.903Z,31.56
2024-03-09T09:09:24.512Z,31.78
2024-03-09T09:11:51.147Z,32.71
2024-03-09T09:14:17.829Z,32.31
2024-03-09T09:16:44.525Z,32.03
2024-03-09T09:19:11.120Z,33.05
2024-03-09T09:21:37.679Z,33.00
2024-03-09T09:24:04.311Z,32.89
2024-03-09T09:26:30.932Z,32.94
2024-03-09T09:28:57.554Z,34.81
2024-03-09T09:31:24.175Z,34.85
2024-03-09T09:33:50.829Z,34.67
2024-03-09T09:36:17.467Z,36.85
2024-03-09T09:38:44.155Z,34.83
2024-03-09T09:41:10.843Z,33.58
2024-03-09T09:43:37.762Z,33.60
2024-03-09T09:46:05.003Z,34.13
2024-03-09T09:48:31.655Z,34.62
2024-03-09T09:50:58.231Z,33.42
2024-03-09T09:53:28.268Z,34.25
2024-03-09T09:55:56.123Z,33.55
2024-03-09T09:58:22.841Z,33.15
2024-03-09T10:00:49.591Z,32.25
2024-03-09T10:03:16.174Z,32.73
2024-03-09T10:05:42.844Z,31.86
2024-03-09T10:08:09.702Z,32.35
2024-03-09T10:10:36.400Z,30.83
2024-03-09T10:13:03.198Z,30.61
2024-03-09T10:15:29.800Z,31.37
2024-03-09T10:17:56.560Z,31.64
2024-03-09T10:20:23.191Z,30.50
2024-03-09T10:22:49.838Z,29.66
2024-03-09T10:25:16.456Z,28.51
2024-03-09T10:27:43.023Z,27.08
2024-03-09T10:30:09.592Z,24.82
2024-03-09T10:32:36.240Z,25.42
2024-03-09T10:35:03.010Z,28.11
2024-03-09T10:37:29.636Z,28.05
2024-03-09T10:39:56.291Z,26.17
2024-03-09T10:42:22.934Z,28.65
2024-03-09T10:44:49.591Z,30.05
2024-03-09T10:47:16.326Z,30.78
2024-03-09T10:49:43.221Z,29.77
2024-03-09T10:52:09.974Z,28.52
2024-03-09T10:54:36.714Z,29.41
2024-03-09T10:57:03.221Z,29.20
2024-03-09T10:59:29.677Z,28.62
2024-03-09T11:01:56.172Z,28.99
2024-03-09T11:04:22.650Z,30.48
2024-03-09T11:06:51.694Z,30.36
2024-03-09T11:09:18.125Z,29.29
2024-03-09T11:11:44.582Z,29.15
2024-03-09T11:14:11.087Z,28.19
2024-03-09T11:16:37.659Z,28.87
2024-03-09T11:19:04.232Z,29.01
2024-03-09T11:21:30.685Z,27.93
2024-03-09T11:23:57.193Z,30.69
2024-03-09T11:26:23.714Z,28.04
2024-03-09T11:28:50.189Z,28.82
2024-03-09T11:31:16.816Z,28.29
2024-03-09T11:33:43.844Z,28.90
2024-03-09T11:36:11.181Z,27.58
2024-03-09T11:38:37.798Z,28.31
2024-03-09T11:41:07.453Z,28.41
2024-03-09T11:43:33.954Z,28.90
2024-03-09T11:46:00.394Z,28.97
2024-03-09T11:48:26.845Z,28.58
2024-03-09T11:50:53.295Z,27.89
2024-03-09T11:53:19.748Z,28.00
2024-03-09T11:55:46.393Z,28.18
2024-03-09T11:58:12.962Z,29.49
2024-03-09T12:00:39.660Z,30.95
2024-03-09T12:03:06.235Z,30.11
2024-03-09T12:05:32.824Z,29.91
2024-03-09T12:07:59.529Z,32.50
2024-03-09T12:10:26.178Z,30.25
2024-03-09T12:12:52.765Z,30.47
2024-03-09T12:15:19.455Z,30.48
2024-03-09T12:17:46.088Z,31.64
2024-03-09T12:20:12.725Z,33.35
2024-03-09T12:22:39.639Z,31.58
2024-03-09T12:25:06.254Z,28.63
2024-03-09T12:27:32.895Z,27.88
2024-03-09T12:29:59.479Z,29.34
2024-03-09T12:32:26.299Z,28.74
2024-03-09T12:34:52.951Z,28.88
2024-03-09T12:37:19.608Z,30.05
2024-03-09T12:39:46.291Z,28.13
2024-03-09T12:42:12.875Z,27.43
2024-03-09T12:44:39.876Z,27.59
2024-03-09T12:47:06.761Z,27.41
2024-03-09T12:49:33.579Z,28.33
2024-03-09T12:52:00.203Z,28.09
2024-03-09T12:54:26.815Z,27.67
2024-03-09T12:56:53.447Z,28.81
2024-03-09T12:59:20.106Z,28.60
2024-03-09T13:01:46.854Z,29.75
2024-03-09T13:04:13.441Z,28.98
2024-03-09T13:06:40.110Z,30.45
2024-03-09T13:09:06.828Z,31.16
2024-03-09T13:11:33.484Z,31.09
2024-03-09T13:14:00.193Z,30.58
2024-03-09T13:16:26.882Z,30.21
2024-03-09T13:18:53.444Z,31.12
2024-03-09T13:21:20.061Z,30.78
2024-03-09T13:23:46.651Z,29.92
2024-03-09T13:26:13.294Z,30.33
2024-03-09T13:28:40.054Z,31.06
2024-03-09T13:31:06.690Z,31.15
2024-03-09T13:33:33.287Z,30.91
2024-03-09T13:36:00.165Z,30.78
2024-03-09T13:38:26.778Z,31.82
2024-03-09T13:40:53.428Z,31.57
2024-03-09T13:43:20.132Z,31.10
2024-03-09T13:45:46.788Z,30.42
2024-03-09T13:48:13.437Z,30.46
2024-03-09T13:50:40.045Z,30.53
2024-03-09T13:53:06.910Z,29.98
2024-03-09T13:55:33.810Z,30.84
2024-03-09T13:58:00.458Z,31.11
2024-03-09T14:00:27.028Z,29.90
2024-03-09T14:02:53.652Z,28.28
2024-03-09T14:05:20.339Z,27.48
2024-03-09T14:07:47.062Z,29.57
2024-03-09T14:10:13.739Z,30.65
2024-03-09T14:12:40.298Z,29.75
2024-03-09T14:15:06.911Z,28.10
2024-03-09T14:17:33.498Z,29.35
2024-03-09T14:20:00.155Z,30.09
2024-03-09T14:22:29.772Z,30.08
2024-03-09T14:24:58.113Z,31.35
2024-03-09T14:27:25.038Z,31.04
2024-03-09T14:29:51.620Z,32.08
2024-03-09T14:32:18.474Z,31.49
2024-03-09T14:34:45.175Z,30.53
2024-03-09T14:37:13.226Z,29.72
2024-03-09T14:39:39.781Z,29.54
2024-03-09T14:42:06.374Z,29.09
2024-03-09T14:44:32.958Z,29.11
2024-03-09T14:46:59.693Z,29.08
2024-03-09T14:49:26.324Z,28.87
2024-03-09T14:51:52.938Z,29.35
2024-03-09T14:54:19.611Z,29.58
2024-03-09T14:56:46.340Z,29.88
2024-03-09T14:59:13.055Z,28.77
2024-03-09T15:01:42.560Z,29.41
2024-03-09T15:04:09.260Z,29.58
2024-03-09T15:06:35.859Z,29.45
2024-03-09T15:09:02.456Z,29.63
2024-03-09T15:11:29.201Z,29.79
2024-03-09T15:13:55.925Z,29.62
2024-03-09T15:16:22.617Z,29.16
2024-03-09T15:18:49.229Z,29.05
2024-03-09T15:21:18.905Z,30.04
2024-03-09T15:23:45.502Z,29.62
2024-03-09T15:26:12.114Z,29.70
2024-03-09T15:28:41.246Z,30.11
2024-03-09T15:31:08.304Z,29.47
2024-03-09T15:33:34.926Z,29.38
2024-03-09T15:36:01.562Z,30.31
2024-03-09T15:38:29.220Z,29.62
2024-03-09T15:40:56.161Z,30.60
2024-03-09T15:43:22.826Z,30.22
2024-03-09T15:45:49.386Z,29.58
2024-03-09T15:48:16.023Z,29.99
2024-03-09T15:50:42.641Z,29.47
2024-03-09T15:53:09.425Z,30.07
2024-03-09T15:55:36.128Z,29.57
2024-03-09T15:58:03.049Z,30.05
2024-03-09T16:00:29.596Z,30.37
2024-03-09T16:02:58.093Z,31.08
2024-03-09T16:05:25.928Z,30.65
2024-03-09T16:07:52.786Z,30.25
2024-03-09T16:10:19.523Z,30.41
2024-03-09T16:12:46.102Z,29.44
2024-03-09T16:15:12.665Z,29.81
2024-03-09T16:17:39.249Z,30.15
2024-03-09T16:20:05.926Z,30.05
2024-03-09T16:22:32.580Z,30.43
2024-03-09T16:24:59.155Z,30.60
2024-03-09T16:27:25.747Z,30.53
2024-03-09T16:29:52.312Z,30.49
2024-03-09T16:32:19.165Z,31.66
2024-03-09T16:34:45.915Z,31.69
2024-03-09T16:37:12.528Z,30.03
2024-03-09T16:39:39.147Z,32.11
2024-03-09T16:42:05.734Z,30.24
2024-03-09T16:44:32.334Z,29.94
2024-03-09T16:46:59.062Z,29.53
2024-03-09T16:49:25.648Z,30.46
2024-03-09T16:51:52.490Z,30.47
2024-03-09T16:54:19.058Z,30.16
2024-03-09T16:56:45.638Z,30.22
2024-03-09T16:59:12.223Z,31.21
2024-03-09T17:01:38.845Z,30.16
2024-03-09T17:04:05.469Z,30.45
2024-03-09T17:06:32.038Z,29.95
2024-03-09T17:08:58.700Z,29.59
2024-03-09T17:11:25.328Z,30.53
2024-03-09T17:13:51.954Z,30.69
2024-03-09T17:16:19.523Z,30.20
2024-03-09T17:18:46.389Z,29.86
2024-03-09T17:21:12.958Z,30.37
2024-03-09T17:23:39.670Z,29.89
2024-03-09T17:26:06.088Z,30.84
2024-03-09T17:28:32.702Z,30.43
2024-03-09T17:30:59.216Z,29.28
2024-03-09T17:33:25.989Z,30.38
2024-03-09T17:35:52.439Z,30.67
2024-03-09T17:38:19.002Z,31.32
2024-03-09T17:40:45.465Z,30.26
2024-03-09T17:43:11.912Z,29.87
2024-03-09T17:45:38.459Z,30.33
2024-03-09T17:48:04.989Z,30.07
2024-03-09T17:50:31.422Z,28.18
2024-03-09T17:52:57.863Z,27.23
2024-03-09T17:55:24.352Z,25.90
2024-03-09T17:57:51.022Z,24.56
2024-03-09T18:00:17.426Z,27.04
2024-03-09T18:02:43.855Z,30.04
2024-03-09T18:05:10.448Z,29.30
2024-03-09T18:07:36.906Z,31.31
2024-03-09T18:10:03.352Z,29.89
2024-03-09T18:12:29.832Z,27.50
2024-03-09T18:14:56.312Z,26.92
2024-03-09T18:17:22.840Z,27.85
2024-03-09T18:19:49.306Z,27.47
2024-03-09T18:22:15.750Z,27.06
2024-03-09T18:24:42.404Z,27.97
2024-03-09T18:27:09.075Z,28.28
2024-03-09T18:29:35.709Z,28.12
2024-03-09T18:32:02.383Z,28.57
2024-03-09T18:34:28.968Z,29.14
2024-03-09T18:36:55.603Z,30.16
2024-03-09T18:39:22.185Z,26.59
2024-03-09T18:41:48.765Z,24.56
2024-03-09T18:44:15.375Z,22.74
2024-03-09T18:46:42.118Z,22.10
2024-03-09T18:49:08.713Z,26.80
2024-03-09T18:51:35.342Z,28.97
2024-03-09T18:54:01.923Z,28.07
2024-03-09T18:56:28.578Z,32.62
2024-03-09T18:58:55.213Z,28.68
2024-03-09T19:01:21.943Z,28.59
2024-03-09T19:03:48.746Z,33.24
2024-03-09T19:06:15.412Z,27.81
2024-03-09T19:08:41.977Z,27.40
2024-03-09T19:11:08.814Z,26.68
2024-03-09T19:13:35.431Z,25.43
2024-03-09T19:16:02.043Z,25.00
2024-03-09T19:18:28.712Z,22.18
2024-03-09T19:20:55.522Z,21.86
2024-03-09T19:23:22.252Z,21.54
2024-03-09T19:25:50.922Z,24.57
2024-03-09T19:28:19.678Z,26.48
2024-03-09T19:30:46.257Z,20.26
2024-03-09T19:33:14.935Z,18.52
2024-03-09T19:35:41.522Z,17.66
2024-03-09T19:38:08.165Z,18.38
2024-03-09T19:40:34.744Z,19.78
2024-03-09T19:43:01.372Z,24.30
2024-03-09T19:45:27.948Z,24.95
2024-03-09T19:47:54.616Z,24.17
2024-03-09T19:50:21.395Z,24.23
2024-03-09T19:52:48.709Z,23.27
2024-03-09T19:55:15.373Z,23.34
2024-03-09T19:57:42.150Z,23.85
2024-03-09T20:00:08.845Z,22.40
2024-03-09T20:02:35.522Z,22.93
2024-03-09T20:05:02.222Z,21.82
2024-03-09T20:07:28.804Z,22.15
2024-03-09T20:09:55.413Z,22.85
2024-03-09T20:12:22.145Z,21.96
2024-03-09T20:14:48.803Z,23.96
2024-03-09T20:17:15.380Z,27.35
2024-03-09T20:19:42.006Z,29.84
2024-03-09T20:22:08.616Z,27.06
2024-03-09T20:24:35.202Z,25.75
2024-03-09T20:27:01.798Z,24.63
2024-03-09T20:29:28.447Z,28.07
2024-03-09T20:31:55.064Z,29.68
2024-03-09T20:34:21.948Z,29.31
2024-03-09T20:36:48.509Z,27.69
2024-03-09T20:39:15.131Z,26.50
2024-03-09T20:41:41.727Z,28.33
2024-03-09T20:44:08.390Z,30.79
2024-03-09T20:46:34.999Z,27.62
2024-03-09T20:49:01.741Z,27.55
2024-03-09T20:51:28.297Z,27.69
2024-03-09T20:53:54.941Z,29.17
2024-03-09T20:56:21.726Z,30.16
2024-03-09T20:58:48.425Z,28.35
2024-03-09T21:01:15.122Z,27.95
2024-03-09T21:03:41.851Z,28.90
2024-03-09T21:06:09.793Z,32.10
2024-03-09T21:08:36.702Z,31.73
2024-03-09T21:11:03.445Z,31.70
2024-03-09T21:13:30.043Z,30.99
2024-03-09T21:15:56.650Z,31.86
2024-03-09T21:18:23.350Z,31.74
2024-03-09T21:20:50.081Z,30.78
2024-03-09T21:23:16.689Z,32.19
2024-03-09T21:25:43.373Z,41.54
2024-03-09T21:28:10.085Z,38.19
2024-03-09T21:30:36.828Z,36.96
2024-03-09T21:33:03.695Z,32.85
2024-03-09T21:35:30.323Z,30.66
2024-03-09T21:37:57.068Z,27.57
2024-03-09T21:40:23.754Z,27.44
2024-03-09T21:42:50.319Z,28.88
2024-03-09T21:45:16.923Z,28.00
2024-03-09T21:47:43.474Z,26.21
2024-03-09T21:50:10.128Z,25.38
2024-03-09T21:52:36.792Z,26.23
2024-03-09T21:55:03.386Z,26.39
2024-03-09T21:57:30.091Z,25.42
2024-03-09T21:59:56.675Z,24.95
2024-03-09T22:02:23.535Z,25.76
2024-03-09T22:04:50.165Z,24.37
2024-03-09T22:07:16.853Z,25.09
2024-03-09T22:09:43.412Z,25.42
2024-03-09T22:12:10.065Z,24.07
2024-03-09T22:14:36.742Z,24.63
2024-03-09T22:17:03.397Z,24.38
2024-03-09T22:19:30.157Z,23.89
2024-03-09T22:21:56.806Z,23.50
2024-03-09T22:24:23.513Z,23.94
2024-03-09T22:26:50.117Z,24.01
2024-03-09T22:29:16.757Z,24.49
2024-03-09T22:31:43.453Z,24.02
2024-03-09T22:34:10.032Z,24.46
2024-03-09T22:36:36.646Z,24.00
2024-03-09T22:39:03.742Z,22.44
2024-03-09T22:41:30.393Z,21.81
2024-03-09T22:43:57.087Z,22.36
2024-03-09T22:46:23.717Z,22.41
2024-03-09T22:48:50.364Z,22.18
2024-03-09T22:51:17.004Z,21.03
2024-03-09T22:53:43.614Z,20.78
2024-03-09T22:56:10.203Z,20.24
2024-03-09T22:58:36.842Z,20.60
2024-03-09T23:01:03.454Z,20.10
2024-03-09T23:03:30.361Z,20.67
2024-03-09T23:05:56.940Z,21.58
2024-03-09T23:08:23.744Z,22.10
2024-03-09T23:10:50.430Z,21.82
2024-03-09T23:13:17.146Z,21.51
2024-03-09T23:15:43.867Z,21.40
2024-03-09T23:18:10.975Z,23.45
2024-03-09T23:20:37.548Z,25.03
2024-03-09T23:23:04.125Z,25.73
2024-03-09T23:25:31.117Z,27.21
2024-03-09T23:27:57.983Z,26.49
2024-03-09T23:30:24.720Z,26.55
2024-03-09T23:32:51.350Z,26.10
2024-03-09T23:35:18.049Z,26.48
2024-03-09T23:37:44.662Z,25.62
2024-03-09T23:40:11.305Z,25.85
2024-03-09T23:42:37.899Z,25.74
2024-03-09T23:45:04.495Z,25.75
2024-03-09T23:47:31.198Z,24.46
2024-03-09T23:49:57.980Z,24.33
2024-03-09T23:52:24.673Z,23.94
2024-03-09T23:54:51.239Z,23.74
2024-03-09T23:57:17.819Z,23.48
2024-03-09T23:59:44.221Z,24.87
